Time;durP1;ratioP1;P1;durP2;ratioP2;P2;SDS_P1;SDS_P2;PMS_P1;PMS_P2;Temp;Humidity;BMP_temperature;BMP_pressure;BME280_temperature;BME280_humidity;BME280_pressure;Samples;Min_cycle;Max_cycle;Signal;HPM_P1;HPM_P2
2021/12/15 00:00:43;;;;;;;0.88;0.88;;;;;;;-4.53;88.84;99885.94;5092381;28;20051;-90
2021/12/15 00:03:11;;;;;;;0.73;0.73;;;;;;;-4.54;88.77;99882.50;5092416;28;20044;-91
2021/12/15 00:05:40;;;;;;;0.73;0.73;;;;;;;-4.50;88.77;99886.56;5092659;28;20078;-91
2021/12/15 00:08:11;;;;;;;0.80;0.80;;;;;;;-4.47;88.49;99893.38;5092502;28;20048;-90
2021/12/15 00:10:44;;;;;;;0.80;0.80;;;;;;;-4.46;88.32;99895.03;5092517;28;20507;-91
2021/12/15 00:13:13;;;;;;;0.75;0.75;;;;;;;-4.44;88.05;99899.22;5092751;28;20113;-91
2021/12/15 00:15:41;;;;;;;0.60;0.60;;;;;;;-4.50;87.65;99888.34;5074984;28;20052;-89
2021/12/15 00:18:08;;;;;;;0.80;0.80;;;;;;;-4.55;87.90;99885.28;5092651;28;20120;-89
2021/12/15 00:20:35;;;;;;;0.63;0.63;;;;;;;-4.64;87.76;99876.31;5103604;28;20055;-90
2021/12/15 00:23:03;;;;;;;0.70;0.70;;;;;;;-4.69;87.64;99875.84;5097786;28;20502;-89
2021/12/15 00:25:35;;;;;;;0.75;0.75;;;;;;;-4.72;87.84;99866.41;5092461;28;20518;-91
2021/12/15 00:28:03;;;;;;;0.70;0.70;;;;;;;-4.70;88.40;99871.56;5092369;28;20113;-89
2021/12/15 00:30:31;;;;;;;0.82;0.82;;;;;;;-4.72;88.34;99873.47;5091686;28;20048;-90
2021/12/15 00:32:58;;;;;;;0.90;0.90;;;;;;;-4.73;88.41;99877.06;5073834;28;20568;-90
2021/12/15 00:35:26;;;;;;;0.65;0.65;;;;;;;-4.70;88.60;99872.38;5092223;28;20421;-92
2021/12/15 00:37:53;;;;;;;0.52;0.52;;;;;;;-4.71;88.49;99870.72;5059383;28;20040;-90
2021/12/15 00:40:23;;;;;;;0.85;0.85;;;;;;;-4.69;88.96;99874.03;5112514;28;20048;-90
2021/12/15 00:42:52;;;;;;;0.60;0.60;;;;;;;-4.70;88.89;99871.56;5077316;28;20047;-91
2021/12/15 00:45:20;;;;;;;0.80;0.80;;;;;;;-4.68;88.95;99880.16;5113371;28;20495;-91
2021/12/15 00:47:47;;;;;;;0.75;0.75;;;;;;;-4.71;89.46;99876.00;5077281;28;20040;-90
2021/12/15 00:50:18;;;;;;;0.73;0.73;;;;;;;-4.68;89.20;99873.09;5094497;28;20062;-90
2021/12/15 00:52:46;;;;;;;0.57;0.57;;;;;;;-4.67;89.52;99871.28;5111718;28;20413;-91
2021/12/15 00:55:17;;;;;;;0.60;0.60;;;;;;;-4.67;89.57;99871.28;5097315;28;20040;-90
2021/12/15 00:57:44;;;;;;;0.82;0.82;;;;;;;-4.70;89.84;99869.75;5097473;28;20047;-90
2021/12/15 01:00:16;;;;;;;0.70;0.70;;;;;;;-4.70;89.86;99869.75;5116279;28;20101;-90
2021/12/15 01:02:44;;;;;;;0.52;0.52;;;;;;;-4.73;90.03;99866.53;5116351;28;20472;-89
2021/12/15 01:05:13;;;;;;;0.80;0.80;;;;;;;-4.73;89.99;99861.28;5116379;28;20475;-90
2021/12/15 01:07:41;;;;;;;0.80;0.80;;;;;;;-4.74;89.87;99849.88;5116030;28;20043;-89
2021/12/15 01:10:12;;;;;;;0.80;0.80;;;;;;;-4.74;90.30;99849.88;5116116;28;20055;-89
2021/12/15 01:14:28;;;;;;;0.70;0.70;;;;;;;-4.72;90.34;99853.22;5116504;28;20097;-89
2021/12/15 01:21:18;;;;;;;0.70;0.70;;;;;;;-4.54;90.62;99847.41;5116759;28;20052;-89
2021/12/15 01:23:46;;;;;;;0.80;0.80;;;;;;;-4.53;90.49;99847.28;5097815;28;20097;-89
2021/12/15 01:26:14;;;;;;;0.93;0.93;;;;;;;-4.62;90.40;99840.13;5098145;28;20047;-88
2021/12/15 01:28:42;;;;;;;0.70;0.70;;;;;;;-4.71;90.47;99830.34;5099093;28;20084;-89
2021/12/15 01:31:10;;;;;;;0.85;0.85;;;;;;;-4.76;90.62;99840.44;5105989;28;20075;-89
2021/12/15 01:33:39;;;;;;;0.65;0.65;;;;;;;-4.78;90.78;99840.56;5084837;28;20059;-88
2021/12/15 01:36:07;;;;;;;0.77;0.77;;;;;;;-4.76;91.10;99830.75;5119797;28;20520;-90
2021/12/15 01:38:36;;;;;;;0.70;0.70;;;;;;;-4.71;91.04;99830.34;5102374;28;20039;-90
2021/12/15 01:41:05;;;;;;;0.63;0.63;;;;;;;-4.72;91.16;99828.69;5086534;28;20085;-90
2021/12/15 01:43:50;;;;;;;0.60;0.60;;;;;;;-4.75;91.11;99828.94;5103808;28;20043;-89
2021/12/15 01:49:10;;;;;;;0.60;0.60;;;;;;;-4.68;91.28;99820.41;5105143;28;20456;-90
2021/12/15 01:51:37;;;;;;;0.80;0.80;;;;;;;-4.69;91.28;99823.16;5115341;28;20051;-90
2021/12/15 01:54:05;;;;;;;0.50;0.50;;;;;;;-4.73;90.92;99824.41;5116491;28;20047;-89
2021/12/15 01:56:32;;;;;;;0.77;0.77;;;;;;;-4.81;91.15;99812.69;5097221;28;20058;-90
2021/12/15 01:59:00;;;;;;;0.70;0.70;;;;;;;-4.85;91.34;99813.91;5080463;28;20051;-89
2021/12/15 02:01:27;;;;;;;0.60;0.60;;;;;;;-4.84;91.22;99828.72;5097904;28;20043;-90
2021/12/15 02:03:56;;;;;;;0.70;0.70;;;;;;;-4.86;91.51;99832.44;5098125;28;20050;-90
2021/12/15 02:06:41;;;;;;;0.60;0.60;;;;;;;-4.84;91.77;99828.72;5115389;28;20594;-90
2021/12/15 02:09:10;;;;;;;0.80;0.80;;;;;;;-4.77;91.74;99822.97;5097875;28;20055;-90
2021/12/15 02:11:38;;;;;;;0.60;0.60;;;;;;;-4.74;91.58;99822.72;5115305;28;20054;-91
2021/12/15 02:14:11;;;;;;;0.80;0.80;;;;;;;-4.73;91.67;99821.78;5115204;28;20048;-90
2021/12/15 02:16:38;;;;;;;0.80;0.80;;;;;;;-4.75;91.69;99823.69;5080808;28;20055;-91
2021/12/15 02:19:06;;;;;;;0.80;0.80;;;;;;;-4.76;91.46;99814.97;5096534;28;20067;-90
2021/12/15 02:21:33;;;;;;;0.65;0.65;;;;;;;-4.84;91.50;99815.56;5096892;28;20051;-90
2021/12/15 02:24:04;;;;;;;0.57;0.57;;;;;;;-4.83;91.91;99825.16;5097330;28;20419;-90
2021/12/15 02:26:37;;;;;;;0.70;0.70;;;;;;;-4.81;91.90;99820.59;5098028;28;20063;-90
2021/12/15 02:29:07;;;;;;;0.70;0.70;;;;;;;-4.73;91.93;99830.50;5098392;28;20055;-90
2021/12/15 02:39:39;;;;;;;0.80;0.80;;;;;;;-4.73;91.63;99819.13;5099575;28;20048;-88
2021/12/15 02:42:07;;;;;;;0.70;0.70;;;;;;;-4.70;91.80;99818.88;5097848;28;20055;-90
2021/12/15 02:44:34;;;;;;;0.70;0.70;;;;;;;-4.76;91.55;99817.59;5115146;28;20079;-90
2021/12/15 02:47:01;;;;;;;0.60;0.60;;;;;;;-4.74;92.11;99817.44;5097046;28;20047;-90
2021/12/15 02:49:29;;;;;;;0.60;0.60;;;;;;;-4.76;91.87;99814.09;5119882;28;20044;-90
2021/12/15 02:51:58;;;;;;;0.90;0.90;;;;;;;-4.69;92.07;99812.63;5100140;28;20067;-89
2021/12/15 02:54:28;;;;;;;0.65;0.65;;;;;;;-4.72;92.16;99808.44;5115409;28;20101;-89
2021/12/15 02:57:03;;;;;;;0.85;0.85;;;;;;;-4.63;91.88;99812.97;5097007;28;20047;-89
2021/12/15 02:59:40;;;;;;;0.70;0.70;;;;;;;-4.65;91.59;99820.16;5095965;28;20074;-91
2021/12/15 03:04:49;;;;;;;0.90;0.90;;;;;;;-4.62;91.57;99811.16;5115591;28;20058;-90
2021/12/15 03:15:29;;;;;;;0.60;0.60;;;;;;;-4.56;91.73;99810.63;5114685;28;20051;-89
2021/12/15 03:18:08;;;;;;;0.65;0.65;;;;;;;-4.61;91.50;99813.69;5095084;28;20447;-90
2021/12/15 03:20:41;;;;;;;0.73;0.73;;;;;;;-4.58;91.45;99804.69;5114485;28;20044;-89
2021/12/15 03:23:12;;;;;;;0.90;0.90;;;;;;;-4.58;91.31;99809.97;5114919;28;20052;-88
2021/12/15 03:25:40;;;;;;;0.73;0.73;;;;;;;-4.55;91.47;99799.16;5114678;28;20074;-89
2021/12/15 03:33:56;;;;;;;0.80;0.80;;;;;;;-4.51;91.35;99805.81;5101001;28;20071;-89
2021/12/15 03:37:03;;;;;;;0.90;0.90;;;;;;;-4.53;91.35;99802.50;5115890;28;20071;-90
2021/12/15 03:39:32;;;;;;;0.90;0.90;;;;;;;-4.54;91.18;99807.88;5115733;28;20051;-90
2021/12/15 03:42:04;;;;;;;0.63;0.63;;;;;;;-4.62;91.17;99801.44;5104724;28;20054;-90
2021/12/15 03:44:34;;;;;;;0.70;0.70;;;;;;;-4.61;91.37;99807.56;5117891;28;20142;-92
2021/12/15 03:47:04;;;;;;;0.93;0.93;;;;;;;-4.57;91.44;99815.06;5078493;28;20059;-91
2021/12/15 03:49:31;;;;;;;0.70;0.70;;;;;;;-4.54;91.79;99806.09;5113334;28;20050;-91
2021/12/15 03:51:58;;;;;;;0.80;0.80;;;;;;;-4.53;91.85;99810.41;5114417;28;20086;-91
2021/12/15 03:54:25;;;;;;;0.70;0.70;;;;;;;-4.55;91.72;99812.34;5095146;28;20518;-90
2021/12/15 03:56:54;;;;;;;0.82;0.82;;;;;;;-4.54;91.57;99806.09;5113845;28;20118;-92
2021/12/15 03:59:24;;;;;;;0.80;0.80;;;;;;;-4.55;91.66;99801.78;5113447;28;20056;-92
2021/12/15 04:01:51;;;;;;;0.80;0.80;;;;;;;-4.55;91.73;99803.59;5113224;28;20130;-91
2021/12/15 04:04:19;;;;;;;0.70;0.70;;;;;;;-4.54;91.44;99799.97;5095501;28;20067;-91
2021/12/15 04:06:49;;;;;;;1.00;1.00;;;;;;;-4.53;91.60;99796.38;5094760;28;20130;-91
2021/12/15 04:09:17;;;;;;;0.60;0.60;;;;;;;-4.50;91.83;99799.59;5113203;28;20482;-96
2021/12/15 04:11:45;;;;;;;0.70;0.70;;;;;;;-4.46;91.69;99797.53;5114309;28;20059;-91
2021/12/15 04:14:20;;;;;;;0.77;0.77;;;;;;;-4.47;91.72;99783.53;5114786;28;20047;-90
2021/12/15 04:17:04;;;;;;;0.80;0.80;;;;;;;-4.45;91.64;99786.88;5094378;28;20051;-90
2021/12/15 04:19:34;;;;;;;0.75;0.75;;;;;;;-4.44;91.51;99787.72;5072296;28;20392;-91
2021/12/15 04:22:04;;;;;;;0.68;0.68;;;;;;;-4.45;91.39;99780.78;5072408;28;20053;-92
2021/12/15 04:24:31;;;;;;;0.55;0.55;;;;;;;-4.44;91.37;99775.34;5080803;28;20048;-88
2021/12/15 04:26:59;;;;;;;0.63;0.63;;;;;;;-4.39;91.04;99775.81;5059992;28;20060;-87
2021/12/15 04:29:29;;;;;;;0.75;0.75;;;;;;;-4.37;90.95;99778.31;5072668;28;20052;-89
2021/12/15 04:32:04;;;;;;;0.70;0.70;;;;;;;-4.39;90.09;99773.16;5075524;28;20503;-88
2021/12/15 04:34:31;;;;;;;;;;;;;;;-4.44;89.83;99769.25;5070133;28;20094;-86
2021/12/15 04:36:59;;;;;;;0.50;0.50;;;;;;;-4.43;89.72;99771.78;5068193;28;20180;-88
2021/12/15 04:39:28;;;;;;;0.52;0.52;;;;;;;-4.44;89.82;99767.47;5069404;28;20121;-86
2021/12/15 04:41:57;;;;;;;0.60;0.60;;;;;;;-4.41;89.89;99772.47;5083437;28;20419;-88
2021/12/15 04:44:28;;;;;;;0.80;0.80;;;;;;;-4.37;89.84;99770.41;5069147;28;20147;-89
2021/12/15 04:47:09;;;;;;;0.70;0.70;;;;;;;-4.38;89.80;99759.06;5089417;28;20135;-88
2021/12/15 04:49:47;;;;;;;0.70;0.70;;;;;;;-4.33;89.86;99763.91;5077903;28;20054;-91
2021/12/15 04:52:16;;;;;;;0.80;0.80;;;;;;;-4.40;89.78;99763.59;5062772;28;20151;-87
2021/12/15 04:54:44;;;;;;;0.68;0.68;;;;;;;-4.36;89.84;99754.47;5078658;28;20490;-92
2021/12/15 04:57:13;;;;;;;0.70;0.70;;;;;;;-4.32;90.02;99760.31;5091411;28;20126;-86
2021/12/15 04:59:40;;;;;;;0.75;0.75;;;;;;;-4.30;89.68;99760.16;5072448;28;20139;-90
2021/12/15 05:02:08;;;;;;;0.80;0.80;;;;;;;-4.27;89.75;99760.75;5089581;28;20151;-89
2021/12/15 05:04:36;;;;;;;0.65;0.65;;;;;;;-4.31;89.66;99759.34;5072617;28;20048;-88
2021/12/15 05:07:03;;;;;;;0.80;0.80;;;;;;;-4.28;89.79;99763.50;5072999;28;20054;-88
2021/12/15 05:09:30;;;;;;;0.90;0.90;;;;;;;-4.27;89.79;99757.31;5090827;28;20056;-89
2021/12/15 05:11:58;;;;;;;0.70;0.70;;;;;;;-4.25;89.83;99766.75;5090112;28;20060;-89
2021/12/15 05:14:25;;;;;;;0.82;0.82;;;;;;;-4.23;89.73;99767.47;5064886;28;20110;-89
2021/12/15 05:16:54;;;;;;;0.75;0.75;;;;;;;-4.23;89.84;99767.47;5072286;28;20075;-90
2021/12/15 05:19:21;;;;;;;0.70;0.70;;;;;;;-4.16;89.69;99759.84;5090283;28;20070;-88
2021/12/15 05:21:57;;;;;;;0.75;0.75;;;;;;;-4.11;89.60;99762.09;5040159;28;20123;-89
2021/12/15 05:24:30;;;;;;;0.80;0.80;;;;;;;-4.09;89.58;99760.16;5090918;28;20051;-89
2021/12/15 05:27:06;;;;;;;0.90;0.90;;;;;;;-4.11;89.25;99757.63;5081069;28;20044;-88
2021/12/15 05:29:33;;;;;;;0.80;0.80;;;;;;;-4.12;89.10;99755.16;5090719;28;20109;-88
2021/12/15 05:32:00;;;;;;;0.80;0.80;;;;;;;-4.12;89.06;99757.78;5072773;28;20063;-90
2021/12/15 05:34:28;;;;;;;0.90;0.90;;;;;;;-4.12;89.26;99760.44;5072928;28;20127;-90
2021/12/15 05:36:55;;;;;;;0.82;0.82;;;;;;;-4.10;89.17;99769.00;5090190;28;20048;-89
2021/12/15 05:39:25;;;;;;;0.70;0.70;;;;;;;-4.08;89.30;99767.09;5091130;28;20580;-89
2021/12/15 05:41:53;;;;;;;0.70;0.70;;;;;;;-4.05;89.47;99759.75;5092864;28;20108;-89
2021/12/15 05:44:21;;;;;;;0.65;0.65;;;;;;;-4.04;89.22;99764.06;5093655;28;20071;-89
2021/12/15 05:46:49;;;;;;;0.60;0.60;;;;;;;-4.04;89.54;99758.78;5094442;28;20131;-89
2021/12/15 05:49:16;;;;;;;0.80;0.80;;;;;;;-4.02;89.22;99762.13;5096385;28;20051;-89
2021/12/15 05:51:44;;;;;;;0.63;0.63;;;;;;;-4.03;89.49;99760.44;5094596;28;20056;-89
2021/12/15 05:54:11;;;;;;;0.70;0.70;;;;;;;-4.10;89.56;99759.31;5076848;28;20529;-88
2021/12/15 05:56:40;;;;;;;0.90;0.90;;;;;;;-4.18;89.94;99761.75;5094472;28;20564;-89
2021/12/15 05:59:08;;;;;;;0.70;0.70;;;;;;;-4.17;90.11;99763.44;5046550;28;20051;-89
2021/12/15 06:01:35;;;;;;;0.90;0.90;;;;;;;-4.17;90.37;99760.81;5077721;28;20049;-88
2021/12/15 06:04:06;;;;;;;0.70;0.70;;;;;;;-4.17;90.44;99759.00;5089784;28;20494;-89
2021/12/15 06:06:34;;;;;;;0.88;0.88;;;;;;;-4.20;90.58;99767.19;5075683;28;20173;-89
2021/12/15 06:09:03;;;;;;;0.70;0.70;;;;;;;-4.26;90.68;99767.69;5080768;28;20078;-89
2021/12/15 06:11:31;;;;;;;0.80;0.80;;;;;;;-4.27;91.00;99773.13;5092760;28;20047;-90
2021/12/15 06:13:58;;;;;;;0.70;0.70;;;;;;;-4.30;90.92;99768.94;5093385;28;20410;-89
2021/12/15 06:16:25;;;;;;;0.80;0.80;;;;;;;-4.27;91.08;99770.47;5073439;28;20048;-89
2021/12/15 06:18:54;;;;;;;0.80;0.80;;;;;;;-4.30;91.10;99768.94;5074858;28;20078;-86
2021/12/15 06:21:22;;;;;;;0.93;0.93;;;;;;;-4.25;91.58;99772.00;5082474;28;20178;-87
2021/12/15 06:23:50;;;;;;;0.90;0.90;;;;;;;-4.20;91.53;99764.53;5082627;28;20044;-87
2021/12/15 06:26:18;;;;;;;0.77;0.77;;;;;;;-4.17;91.57;99766.09;5076894;28;20115;-87
2021/12/15 06:28:46;;;;;;;0.70;0.70;;;;;;;-4.12;91.45;99765.69;5069700;28;20105;-86
2021/12/15 06:31:17;;;;;;;0.70;0.70;;;;;;;-4.07;91.17;99771.41;5088338;28;20502;-87
2021/12/15 06:33:46;;;;;;;0.80;0.80;;;;;;;-4.05;90.99;99766.81;5074347;28;20044;-86
2021/12/15 06:36:20;;;;;;;0.70;0.70;;;;;;;-4.06;91.08;99775.69;5083439;28;20059;-86
2021/12/15 06:38:54;;;;;;;0.80;0.80;;;;;;;-4.04;90.68;99774.59;4970610;28;10001016;-87
2021/12/15 06:41:22;;;;;;;0.80;0.80;;;;;;;-4.00;90.57;99770.75;5077462;28;20272;-87
2021/12/15 06:43:55;;;;;;;0.90;0.90;;;;;;;-3.98;90.48;99765.31;5076299;28;20144;-89
2021/12/15 06:58:35;;;;;;;0.88;0.88;;;;;;;-3.96;90.01;99768.66;5080983;28;20040;-88
2021/12/15 07:00:34;;;;;;;0.68;0.68;;;;;;;-3.96;89.87;99758.13;5060598;28;20061;-88
2021/12/15 07:03:02;;;;;;;0.80;0.80;;;;;;;-3.95;89.63;99758.00;5087070;28;20590;-87
2021/12/15 07:05:31;;;;;;;0.73;0.73;;;;;;;-3.94;89.81;99751.75;5084730;28;20079;-87
2021/12/15 07:08:01;;;;;;;0.80;0.80;;;;;;;-3.90;89.80;99749.66;5090143;28;20136;-89
2021/12/15 07:10:31;;;;;;;0.80;0.80;;;;;;;-3.84;89.60;99754.41;5086137;28;20036;-90
2021/12/15 07:12:59;;;;;;;0.93;0.93;;;;;;;-3.82;89.44;99760.41;5094391;28;20417;-88
2021/12/15 07:15:26;;;;;;;0.50;0.50;;;;;;;-3.84;89.53;99758.88;5095773;28;20067;-88
2021/12/15 07:18:01;;;;;;;0.80;0.80;;;;;;;-3.81;89.61;99756.78;5070757;28;20056;-87
2021/12/15 07:23:00;;;;;;;0.90;0.90;;;;;;;-3.71;89.18;99762.09;5080475;28;20043;-87
2021/12/15 07:25:28;;;;;;;0.60;0.60;;;;;;;-3.75;88.94;99771.22;5092416;28;20544;-88
2021/12/15 07:27:58;;;;;;;0.70;0.70;;;;;;;-3.76;88.94;99774.84;5088433;28;20055;-89
2021/12/15 07:30:26;;;;;;;0.70;0.70;;;;;;;-3.78;88.97;99776.78;5094636;28;20048;-86
2021/12/15 07:32:54;;;;;;;0.70;0.70;;;;;;;-3.80;89.21;99776.94;5092776;28;20555;-88
2021/12/15 07:35:22;;;;;;;0.80;0.80;;;;;;;-3.77;89.10;99783.75;5082629;28;20052;-87
2021/12/15 07:37:49;;;;;;;0.68;0.68;;;;;;;-3.78;89.26;99771.50;5097597;28;20079;-86
2021/12/15 07:40:21;;;;;;;0.68;0.68;;;;;;;-3.71;89.40;99783.19;5095666;28;20054;-89
2021/12/15 07:43:08;;;;;;;0.70;0.70;;;;;;;-3.73;89.40;99782.50;5074843;28;20155;-87
2021/12/15 07:45:52;;;;;;;1.00;1.00;;;;;;;-3.81;89.07;99777.06;5084794;28;20392;-87
2021/12/15 07:48:21;;;;;;;0.80;0.80;;;;;;;-3.81;89.31;99779.69;5087716;28;20051;-88
2021/12/15 07:50:51;;;;;;;0.73;0.73;;;;;;;-3.78;89.31;99780.25;5084606;28;20075;-84
2021/12/15 07:53:20;;;;;;;0.70;0.70;;;;;;;-3.77;89.00;99770.56;5068488;28;20080;-87
2021/12/15 07:55:48;;;;;;;0.95;0.95;;;;;;;-3.74;89.34;99780.84;5069585;28;20048;-89
2021/12/15 07:58:18;;;;;;;0.70;0.70;;;;;;;-3.77;88.97;99770.56;5071790;28;20072;-87
2021/12/15 08:00:47;;;;;;;0.88;0.88;;;;;;;-3.74;88.77;99771.13;5083563;28;20139;-87
2021/12/15 08:03:19;;;;;;;0.68;0.68;;;;;;;-3.74;89.13;99771.13;5076884;28;20040;-89
2021/12/15 08:05:49;;;;;;;0.90;0.90;;;;;;;-3.76;88.77;99782.75;5060742;28;20109;-90
2021/12/15 08:08:18;;;;;;;0.70;0.70;;;;;;;-3.77;88.98;99770.56;5030356;28;20044;-90
2021/12/15 08:10:48;;;;;;;0.73;0.73;;;;;;;-3.76;88.91;99773.03;5069151;28;20040;-87
2021/12/15 08:13:16;;;;;;;0.90;0.90;;;;;;;-3.71;89.11;99775.28;5087545;28;20585;-84
2021/12/15 08:15:44;;;;;;;0.82;0.82;;;;;;;-3.65;88.94;99764.19;5092086;28;20372;-86
2021/12/15 08:18:13;;;;;;;0.70;0.70;;;;;;;-3.56;89.00;99763.38;5083736;28;20070;-89
2021/12/15 08:20:41;;;;;;;0.70;0.70;;;;;;;-3.47;88.69;99759.09;5083334;28;20048;-88
2021/12/15 08:23:09;;;;;;;0.80;0.80;;;;;;;-3.41;88.36;99757.72;5079403;28;20108;-88
2021/12/15 08:25:39;;;;;;;0.90;0.90;;;;;;;-3.34;88.34;99764.09;5053489;28;20667;-84
2021/12/15 08:28:11;;;;;;;0.80;0.80;;;;;;;-3.35;87.63;99770.38;5072370;28;20072;-86
2021/12/15 08:30:46;;;;;;;0.98;0.98;;;;;;;-3.39;87.72;99759.25;5042203;28;20602;-85
2021/12/15 08:33:19;;;;;;;1.00;1.00;;;;;;;-3.37;87.74;99767.03;5069489;28;20578;-84
2021/12/15 08:36:12;;;;;;;1.00;1.00;;;;;;;-3.34;87.56;99770.25;5051925;28;20135;-89
2021/12/15 08:38:41;;;;;;;0.80;0.80;;;;;;;-3.38;87.49;99765.38;5071347;28;20163;-84
2021/12/15 08:41:18;;;;;;;0.90;0.90;;;;;;;-3.36;87.46;99764.25;5081608;28;20071;-84
2021/12/15 08:43:45;;;;;;;0.80;0.80;;;;;;;-3.30;87.53;99760.22;5060280;28;20049;-87
2021/12/15 08:46:18;;;;;;;0.80;0.80;;;;;;;-3.29;87.25;99764.56;5089682;28;20101;-84
2021/12/15 08:48:49;;;;;;;0.80;0.80;;;;;;;-3.26;87.38;99761.63;5081719;28;20048;-87
2021/12/15 08:51:26;;;;;;;1.00;1.00;;;;;;;-3.13;87.30;99762.19;5043943;28;20444;-84
2021/12/15 08:54:02;;;;;;;1.00;1.00;;;;;;;-3.09;86.96;99763.59;5085058;28;20053;-86
2021/12/15 08:56:33;;;;;;;0.80;0.80;;;;;;;-2.97;86.65;99763.44;5086736;28;20109;-84
2021/12/15 08:59:04;;;;;;;0.80;0.80;;;;;;;-2.92;86.12;99758.59;5054311;28;20121;-86
2021/12/15 09:01:32;;;;;;;0.90;0.90;;;;;;;-2.87;86.24;99759.00;5081128;28;20048;-85
2021/12/15 09:04:00;;;;;;;1.00;1.00;;;;;;;-2.85;85.94;99754.41;5061766;28;20105;-86
2021/12/15 09:06:28;;;;;;;0.90;0.90;;;;;;;-2.83;85.67;99753.31;5078929;28;20041;-86
2021/12/15 09:08:55;;;;;;;1.00;1.00;;;;;;;-2.87;85.14;99748.44;5049491;28;20076;-86
2021/12/15 09:11:25;;;;;;;0.80;0.80;;;;;;;-2.86;85.24;99755.38;5075279;28;20530;-88
2021/12/15 09:13:55;;;;;;;0.70;0.70;;;;;;;-2.87;85.27;99748.44;5061382;28;20048;-88
2021/12/15 09:16:23;;;;;;;0.90;0.90;;;;;;;-2.88;85.46;99738.84;5100806;28;20107;-88
2021/12/15 09:18:51;;;;;;;0.75;0.75;;;;;;;-2.90;85.35;99740.78;5101687;28;20044;-86
2021/12/15 09:21:21;;;;;;;0.80;0.80;;;;;;;-2.95;85.34;99735.09;5076834;28;20111;-86
2021/12/15 09:23:49;;;;;;;0.90;0.90;;;;;;;-2.93;85.73;99736.63;5092129;28;20044;-87
2021/12/15 09:26:20;;;;;;;0.85;0.85;;;;;;;-2.94;85.41;99734.09;5081022;28;20048;-85
2021/12/15 09:28:48;;;;;;;0.70;0.70;;;;;;;-2.92;85.56;99743.56;5067176;28;20045;-88
2021/12/15 09:31:16;;;;;;;0.80;0.80;;;;;;;-2.88;85.63;99734.41;5059666;28;20052;-90
2021/12/15 09:33:46;;;;;;;0.75;0.75;;;;;;;-2.85;85.47;99733.28;5092857;28;20028;-88
2021/12/15 09:36:16;;;;;;;0.77;0.77;;;;;;;-2.78;85.41;99742.31;5090130;28;20048;-87
2021/12/15 09:38:51;;;;;;;0.90;0.90;;;;;;;-2.85;85.22;99731.47;5083165;28;20053;-89
2021/12/15 09:41:20;;;;;;;0.90;0.90;;;;;;;-2.82;85.07;99733.00;5096330;28;20044;-86
2021/12/15 09:43:50;;;;;;;0.80;0.80;;;;;;;-2.81;85.09;99720.59;5070751;28;20040;-87
2021/12/15 09:47:10;;;;;;;0.95;0.95;;;;;;;-2.78;84.98;99723.81;5081368;28;20434;-86
2021/12/15 10:03:34;;;;;;;0.90;0.90;;;;;;;-2.77;86.16;99693.78;5069873;28;20044;-84
2021/12/15 10:19:51;;;;;;;0.70;0.70;;;;;;;-2.81;86.02;99681.84;5059273;28;20056;-86
2021/12/15 10:25:11;;;;;;;0.90;0.90;;;;;;;-2.83;86.13;99681.97;5090894;28;20052;-86
2021/12/15 10:28:05;;;;;;;0.95;0.95;;;;;;;-2.82;86.00;99677.50;5071795;28;20044;-84
2021/12/15 10:30:45;;;;;;;0.90;0.90;;;;;;;-2.80;85.90;99680.84;5072711;28;20060;-85
2021/12/15 10:33:29;;;;;;;1.00;1.00;;;;;;;-2.87;86.06;99675.28;5077279;28;20101;-83
2021/12/15 10:36:05;;;;;;;0.80;0.80;;;;;;;-2.89;86.38;99660.56;5081547;28;20076;-85
2021/12/15 10:38:40;;;;;;;0.98;0.98;;;;;;;-2.87;86.71;99674.47;5090547;28;20486;-86
2021/12/15 10:41:23;;;;;;;0.70;0.70;;;;;;;-2.85;86.84;99673.34;5068273;28;20052;-86
2021/12/15 10:44:04;;;;;;;0.90;0.90;;;;;;;-2.86;86.73;99670.84;5082215;28;20056;-86
2021/12/15 10:46:38;;;;;;;0.90;0.90;;;;;;;-2.89;86.78;99663.19;5091045;28;20188;-85
2021/12/15 10:49:24;;;;;;;0.98;0.98;;;;;;;-2.88;87.02;99657.78;5080915;28;20055;-84
2021/12/15 10:52:12;;;;;;;0.70;0.70;;;;;;;-2.81;87.32;99673.06;5080995;28;20081;-86
2021/12/15 10:54:49;;;;;;;0.90;0.90;;;;;;;-2.74;87.38;99674.16;5096541;28;20049;-84
2021/12/15 10:57:29;;;;;;;0.73;0.73;;;;;;;-2.59;87.35;99671.91;5047366;28;20457;-83
2021/12/15 10:59:59;;;;;;;1.00;1.00;;;;;;;-2.50;87.23;99673.69;5091838;28;20847;-82
2021/12/15 11:02:41;;;;;;;0.88;0.88;;;;;;;-2.44;87.07;99667.81;5084873;28;20159;-83
2021/12/15 11:05:20;;;;;;;0.90;0.90;;;;;;;-2.50;86.87;99671.88;5085786;28;20078;-84
2021/12/15 11:07:58;;;;;;;0.82;0.82;;;;;;;-2.48;86.95;99669.91;5090777;28;20129;-85
2021/12/15 11:10:32;;;;;;;0.60;0.60;;;;;;;-2.55;86.75;99670.66;5092226;28;20044;-85
2021/12/15 11:13:13;;;;;;;0.90;0.90;;;;;;;-2.63;86.91;99672.19;5068377;28;20109;-83
2021/12/15 11:15:43;;;;;;;0.90;0.90;;;;;;;-2.68;86.98;99676.25;5072078;28;20511;-84
2021/12/15 11:18:18;;;;;;;0.90;0.90;;;;;;;-2.67;87.27;99665.50;5070276;28;20052;-84
2021/12/15 11:20:51;;;;;;;0.80;0.80;;;;;;;-2.66;87.14;99661.06;5071691;28;20469;-85
2021/12/15 11:23:22;;;;;;;0.88;0.88;;;;;;;-2.65;87.32;99658.28;5064686;28;20055;-87
2021/12/15 11:25:55;;;;;;;0.80;0.80;;;;;;;-2.66;87.22;99666.34;5082251;28;20052;-85
2021/12/15 11:28:29;;;;;;;0.80;0.80;;;;;;;-2.63;87.16;99661.63;5065213;28;20117;-86
2021/12/15 11:31:13;;;;;;;0.88;0.88;;;;;;;-2.62;87.35;99660.63;5077586;28;20052;-85
2021/12/15 11:33:42;;;;;;;1.08;1.08;;;;;;;-2.57;87.35;99660.22;5077437;28;20148;-86
2021/12/15 11:36:44;;;;;;;0.90;0.90;;;;;;;-2.55;87.15;99660.06;5085829;28;20053;-84
2021/12/15 11:39:28;;;;;;;0.85;0.85;;;;;;;-2.57;87.18;99657.56;4974764;28;20058;-84
2021/12/15 11:41:58;;;;;;;0.95;0.95;;;;;;;-2.63;87.03;99664.25;4936837;29;20070;-84
2021/12/15 11:44:26;;;;;;;0.90;0.90;;;;;;;-2.65;87.42;99660.94;4952062;29;20079;-86
2021/12/15 11:46:58;;;;;;;0.93;0.93;;;;;;;-2.70;87.02;99665.81;4946069;28;20063;-85
2021/12/15 11:49:31;;;;;;;0.88;0.88;;;;;;;-2.72;87.30;99665.13;4953659;29;20057;-84
2021/12/15 11:52:06;;;;;;;0.90;0.90;;;;;;;-2.80;86.99;99670.28;4951541;29;20609;-85
2021/12/15 11:54:34;;;;;;;0.90;0.90;;;;;;;-2.87;87.26;99675.28;4955262;29;20062;-86
2021/12/15 11:57:14;;;;;;;0.90;0.90;;;;;;;-2.89;87.49;99677.25;4963425;28;20105;-84
2021/12/15 11:59:51;;;;;;;0.75;0.75;;;;;;;-2.86;87.91;99673.47;4979991;28;20078;-85
2021/12/15 12:02:25;;;;;;;0.70;0.70;;;;;;;-2.85;87.78;99677.81;4980034;28;20483;-85
2021/12/15 12:04:58;;;;;;;0.90;0.90;;;;;;;-2.90;87.47;99674.75;4980390;28;20146;-84
2021/12/15 12:08:06;;;;;;;0.95;0.95;;;;;;;-2.94;87.78;99674.19;4966337;29;20071;-87
2021/12/15 12:10:46;;;;;;;0.63;0.63;;;;;;;-2.92;88.09;99671.41;4944188;28;20056;-85
2021/12/15 12:13:38;;;;;;;0.70;0.70;;;;;;;-2.97;88.00;99678.94;4996097;28;20149;-85
2021/12/15 12:16:07;;;;;;;0.90;0.90;;;;;;;-2.95;88.45;99682.28;5054151;28;20143;-84
2021/12/15 12:18:35;;;;;;;0.80;0.80;;;;;;;-2.95;88.56;99680.47;5087458;28;20503;-85
2021/12/15 12:21:07;;;;;;;0.80;0.80;;;;;;;-2.92;88.64;99676.69;5079318;28;20052;-85
2021/12/15 12:23:59;;;;;;;0.80;0.80;;;;;;;-2.96;88.68;99680.59;5072719;28;20048;-83
2021/12/15 12:26:31;;;;;;;0.70;0.70;;;;;;;-3.05;88.58;99671.72;5055399;28;20049;-85
2021/12/15 12:29:00;;;;;;;0.73;0.73;;;;;;;-3.00;88.43;99684.50;5083816;28;20087;-86
2021/12/15 12:31:28;;;;;;;0.80;0.80;;;;;;;-3.00;88.47;99684.50;5055907;28;20055;-85
2021/12/15 12:33:55;;;;;;;0.70;0.70;;;;;;;-3.05;88.52;99677.81;5072953;28;20048;-87
2021/12/15 12:36:29;;;;;;;0.88;0.88;;;;;;;-3.10;88.54;99680.06;5079972;28;20059;-85
2021/12/15 12:39:05;;;;;;;0.77;0.77;;;;;;;-3.12;88.79;99679.34;5085903;28;20040;-85
2021/12/15 12:41:43;;;;;;;0.75;0.75;;;;;;;-3.12;88.98;99682.00;5060812;28;20044;-85
2021/12/15 12:44:14;;;;;;;0.80;0.80;;;;;;;-3.06;88.97;99680.63;5080874;28;20140;-84
2021/12/15 12:46:56;;;;;;;0.82;0.82;;;;;;;-3.07;88.96;99677.13;5077535;28;20474;-85
2021/12/15 13:00:51;;;;;;;0.90;0.90;;;;;;;-3.13;89.37;99682.16;5040372;28;20396;-84
2021/12/15 13:03:43;;;;;;;0.90;0.90;;;;;;;-3.09;89.21;99686.16;5077690;28;20056;-82
2021/12/15 13:06:14;;;;;;;0.70;0.70;;;;;;;-3.09;89.13;99667.69;5092518;28;20079;-87
2021/12/15 13:08:44;;;;;;;0.80;0.80;;;;;;;-3.10;89.33;99679.22;5090466;28;20048;-85
2021/12/15 13:11:22;;;;;;;0.60;0.60;;;;;;;-3.11;89.48;99675.75;5069795;28;20123;-86
2021/12/15 13:14:13;;;;;;;0.70;0.70;;;;;;;-3.09;89.50;99676.44;5090192;28;20144;-84
2021/12/15 13:16:50;;;;;;;0.70;0.70;;;;;;;-3.11;89.37;99681.03;5080398;28;20084;-85
2021/12/15 13:19:44;;;;;;;0.80;0.80;;;;;;;-3.12;89.31;99673.25;5084076;28;20082;-86
2021/12/15 13:22:20;;;;;;;0.80;0.80;;;;;;;-3.08;89.18;99672.81;5071659;28;20056;-84
2021/12/15 13:30:50;;;;;;;0.90;0.90;;;;;;;-3.11;89.52;99681.03;5067338;28;20392;-83